createdAt,value
2023-04-18T00:04:44.697Z,16.9
2023-04-18T00:09:44.784Z,16.9
2023-04-18T00:14:44.607Z,16.9
2023-04-18T00:19:45.618Z,16.9
2023-04-18T00:24:44.697Z,16.9
2023-04-18T00:29:44.646Z,16.6
2023-04-18T00:34:44.559Z,16.6
2023-04-18T00:39:44.611Z,16.6
2023-04-18T00:44:44.585Z,16.4
2023-04-18T00:49:44.589Z,16.4
2023-04-18T00:54:44.732Z,16.4
2023-04-18T00:59:44.611Z,17.1
2023-04-18T01:04:44.672Z,17.2
2023-04-18T01:09:44.691Z,17.1
2023-04-18T01:14:44.590Z,17.1
2023-04-18T01:19:44.667Z,17.1
2023-04-18T01:24:44.653Z,17.1
2023-04-18T01:29:44.585Z,17.1
2023-04-18T01:34:44.675Z,16.7
2023-04-18T01:39:44.671Z,16.7
2023-04-18T01:44:44.601Z,16.7
2023-04-18T01:49:44.749Z,16.7
2023-04-18T01:54:44.740Z,16.5
2023-04-18T01:59:44.602Z,16.5
2023-04-18T02:04:44.559Z,17.8
2023-04-18T02:09:44.682Z,17.8
2023-04-18T02:14:44.617Z,17.9
2023-04-18T02:19:44.616Z,17.9
2023-04-18T02:24:44.583Z,18.1
2023-04-18T02:29:44.670Z,18.1
2023-04-18T02:34:44.557Z,18.1
2023-04-18T02:39:44.653Z,17.6
2023-04-18T02:44:44.580Z,18.5
2023-04-18T02:49:44.882Z,18.5
2023-04-18T02:54:44.673Z,18.5
2023-04-18T02:59:44.825Z,18.7
2023-04-18T03:04:44.667Z,19.6
2023-04-18T03:09:44.612Z,19.6
2023-04-18T03:14:44.700Z,20.3
2023-04-18T03:19:44.684Z,20.3
2023-04-18T03:24:44.605Z,20.3
2023-04-18T03:29:44.602Z,21.4
2023-04-18T03:34:45.537Z,21.8
2023-04-18T03:39:44.602Z,22.4
2023-04-18T03:44:44.747Z,22.4
2023-04-18T03:49:44.711Z,22.4
2023-04-18T03:54:44.749Z,23
2023-04-18T03:59:47.350Z,23
2023-04-18T04:04:44.803Z,23.4
2023-04-18T04:09:44.613Z,24.2
2023-04-18T04:14:44.606Z,24.4
2023-04-18T04:19:44.682Z,24.8
2023-04-18T04:24:44.777Z,26
2023-04-18T04:29:44.692Z,26
2023-04-18T04:34:44.687Z,26
2023-04-18T04:39:44.729Z,26
2023-04-18T04:44:44.613Z,25.4
2023-04-18T04:49:44.745Z,25
2023-04-18T04:54:44.758Z,25
2023-04-18T04:59:44.747Z,25
2023-04-18T05:04:44.666Z,25
2023-04-18T05:09:44.875Z,24.9
2023-04-18T05:14:44.651Z,24.9
2023-04-18T05:19:44.653Z,25
2023-04-18T05:24:44.623Z,25.1
2023-04-18T05:29:44.699Z,25.5
2023-04-18T05:34:44.597Z,25.5
2023-04-18T05:39:44.744Z,25.8
2023-04-18T05:44:44.645Z,26
2023-04-18T05:49:44.678Z,26.1
2023-04-18T05:54:45.181Z,26
2023-04-18T06:05:24.973Z,25.3
2023-04-18T06:09:44.612Z,26.15
2023-04-18T06:14:44.820Z,27
2023-04-18T06:19:47.446Z,29.15
2023-04-18T06:24:44.728Z,31.3
2023-04-18T06:29:44.753Z,31.8
2023-04-18T06:34:49.706Z,32.3
2023-04-18T06:39:44.774Z,32.3
2023-04-18T06:44:44.752Z,32.3
2023-04-18T06:49:49.117Z,32.3
2023-04-18T06:54:44.710Z,32.3
2023-04-18T06:59:44.629Z,32
2023-04-18T07:04:49.347Z,31.4
2023-04-18T07:09:44.748Z,31.2
2023-04-18T07:14:44.650Z,29.7
2023-04-18T07:19:48.321Z,29.7
2023-04-18T07:24:44.814Z,28.4
2023-04-18T07:29:44.624Z,26.5
2023-04-18T07:34:53.491Z,26.2
2023-04-18T07:39:44.681Z,25
2023-04-18T07:44:44.787Z,24.4
2023-04-18T07:49:49.911Z,24
2023-04-18T07:54:44.759Z,23.1
2023-04-18T07:59:44.621Z,23
2023-04-18T08:04:48.723Z,22.4
2023-04-18T08:09:44.741Z,21.9
2023-04-18T08:14:44.665Z,21.9
2023-04-18T08:19:49.452Z,21.9
2023-04-18T08:25:01.335Z,21.5
2023-04-18T08:29:44.717Z,21.3
2023-04-18T08:34:49.595Z,21.9
2023-04-18T08:39:44.668Z,21.9
2023-04-18T08:44:44.646Z,20.1
2023-04-18T08:49:49.425Z,19.3
2023-04-18T08:54:44.755Z,18.2
2023-04-18T08:59:46.758Z,18.2
2023-04-18T09:04:51.127Z,18.2
2023-04-18T09:09:44.761Z,17.3
2023-04-18T09:14:44.720Z,16.1
2023-04-18T09:19:51.550Z,15
2023-04-18T09:24:44.784Z,14.9
2023-04-18T09:29:44.692Z,14.6
2023-04-18T09:34:49.779Z,14.3
2023-04-18T09:39:44.659Z,14.3
2023-04-18T09:44:44.700Z,12.3
2023-04-18T09:49:49.480Z,12
2023-04-18T09:54:45.555Z,11.8
2023-04-18T09:59:44.691Z,11.3
2023-04-18T10:04:50.279Z,11.3
2023-04-18T10:19:44.688Z,11.1
2023-04-18T10:24:44.684Z,11.5
2023-04-18T10:29:44.685Z,11.1
2023-04-18T10:34:44.753Z,10.9
2023-04-18T10:39:46.010Z,10.7
2023-04-18T10:44:44.755Z,10.65
2023-04-18T10:49:45.021Z,10.6
2023-04-18T10:54:44.665Z,10.6
2023-04-18T10:59:44.661Z,10.4
2023-04-18T11:04:44.877Z,10
2023-04-18T11:09:47.704Z,9.9
2023-04-18T11:14:44.680Z,10
2023-04-18T11:19:44.819Z,10
2023-04-18T11:24:44.816Z,10.4
2023-04-18T11:29:44.714Z,10.4
2023-04-18T11:34:45.116Z,10.2
2023-04-18T11:39:44.744Z,10.5
2023-04-18T11:44:45.193Z,10.5
2023-04-18T11:49:44.702Z,11.1
2023-04-18T11:54:44.739Z,11.1
2023-04-18T11:59:44.703Z,10.2
2023-04-18T12:04:44.874Z,10.2
2023-04-18T12:09:44.932Z,9.7
2023-04-18T12:14:44.751Z,9.5
2023-04-18T12:19:44.762Z,9.5
2023-04-18T12:24:44.751Z,9.3
2023-04-18T12:44:46.383Z,7.9
2023-04-18T12:49:44.879Z,7.9
2023-04-18T12:54:44.641Z,7.9
2023-04-18T12:59:44.748Z,8.95
2023-04-18T13:04:44.802Z,10
2023-04-18T13:09:44.704Z,9.1
2023-04-18T13:14:45.072Z,10
2023-04-18T13:19:44.690Z,10
2023-04-18T13:24:44.851Z,10
2023-04-18T13:29:44.769Z,9.6
2023-04-18T13:34:44.888Z,9.1
2023-04-18T13:39:44.715Z,9
2023-04-18T13:44:44.812Z,9.1
2023-04-18T13:49:44.763Z,9.1
2023-04-18T13:54:44.721Z,9.1
2023-04-18T13:59:44.784Z,9.1
2023-04-18T14:04:44.934Z,9.5
2023-04-18T14:09:44.707Z,9.5
2023-04-18T14:14:44.889Z,9.5
2023-04-18T14:19:44.723Z,9.5
2023-04-18T14:24:44.798Z,8.8
2023-04-18T14:29:44.954Z,8.8
2023-04-18T14:34:44.775Z,8.8
2023-04-18T14:39:44.774Z,8.8
2023-04-18T14:44:44.799Z,9.2
2023-04-18T14:49:44.746Z,10.3
2023-04-18T14:54:46.750Z,9.2
2023-04-18T14:59:44.875Z,9.2
2023-04-18T15:04:44.872Z,9.2
2023-04-18T15:09:44.834Z,9.2
2023-04-18T15:14:44.832Z,8.9
2023-04-18T15:19:44.894Z,8.9
2023-04-18T15:24:44.811Z,8.9
2023-04-18T15:29:44.829Z,8.9
2023-04-18T15:34:44.909Z,9.5
2023-04-18T15:39:44.793Z,9.5
2023-04-18T15:44:44.852Z,9.9
2023-04-18T15:49:44.842Z,10
2023-04-18T15:54:44.799Z,10.4
2023-04-18T15:59:44.804Z,11.4
2023-04-18T16:04:45.361Z,11.7
2023-04-18T16:09:44.872Z,11.7
2023-04-18T16:14:44.827Z,12.8
2023-04-18T16:19:44.752Z,12.8
2023-04-18T16:24:44.838Z,12.8
2023-04-18T16:29:44.779Z,12.8
2023-04-18T16:34:44.863Z,12.5
2023-04-18T16:39:44.874Z,11.6
2023-04-18T16:44:44.972Z,11.6
2023-04-18T16:49:44.822Z,11.6
2023-04-18T16:54:44.799Z,11.6
2023-04-18T16:59:44.906Z,12.5
2023-04-18T17:04:45.042Z,12.5
2023-04-18T17:09:45.018Z,11.9
2023-04-18T17:14:47.670Z,11.9
2023-04-18T17:19:45.045Z,11.9
2023-04-18T17:24:44.843Z,10.6
2023-04-18T17:29:44.890Z,10.6
2023-04-18T17:34:44.816Z,10.6
2023-04-18T17:39:46.333Z,10.6
2023-04-18T17:44:44.813Z,11.4
2023-04-18T17:49:44.980Z,11.4
2023-04-18T17:54:44.807Z,11.4
2023-04-18T17:59:44.927Z,12
2023-04-18T18:04:44.823Z,12.6
2023-04-18T18:09:44.755Z,12
2023-04-18T18:14:44.746Z,12.6
2023-04-18T18:19:44.754Z,13.4
2023-04-18T18:24:44.824Z,13.4
2023-04-18T18:29:44.934Z,13.4
2023-04-18T18:34:44.830Z,13.4
2023-04-18T18:39:44.747Z,13.4
2023-04-18T18:44:44.895Z,13.4
2023-04-18T18:49:45.949Z,13.4
2023-04-18T18:54:44.793Z,13.5
2023-04-18T18:59:44.868Z,13.5
2023-04-18T19:04:45.035Z,13.5
2023-04-18T19:09:44.794Z,13.5
2023-04-18T19:14:44.761Z,13.5
2023-04-18T19:19:44.892Z,14.1
2023-04-18T19:24:44.758Z,14.3
2023-04-18T19:29:45.229Z,14.7
2023-04-18T19:34:44.812Z,14.7
2023-04-18T19:39:44.992Z,14.7
2023-04-18T19:44:44.845Z,14.8
2023-04-18T19:49:44.916Z,15
2023-04-18T19:54:44.738Z,15
2023-04-18T19:59:44.960Z,14.8
2023-04-18T20:04:44.969Z,15
2023-04-18T20:09:45.443Z,15
2023-04-18T20:14:44.917Z,15.1
2023-04-18T20:19:45.030Z,15.1
2023-04-18T20:24:44.937Z,16.6
2023-04-18T20:29:44.895Z,17.5
2023-04-18T20:34:44.867Z,17.5
2023-04-18T20:39:44.782Z,17.5
2023-04-18T20:44:44.893Z,16.6
2023-04-18T20:49:44.837Z,15.6
2023-04-18T20:54:44.808Z,15.6
2023-04-18T20:59:44.917Z,15.6
2023-04-18T21:04:44.880Z,15.6
2023-04-18T21:09:44.819Z,17.2
2023-04-18T21:14:45.111Z,17.2
2023-04-18T21:19:44.798Z,17.2
2023-04-18T21:24:45.117Z,17.2
2023-04-18T21:29:44.886Z,17.2
2023-04-18T21:34:44.798Z,17.8
2023-04-18T21:39:44.957Z,17.7
2023-04-18T21:44:45.173Z,17.7
2023-04-18T21:49:44.802Z,17.8
2023-04-18T21:54:45.365Z,18.2
2023-04-18T21:59:44.756Z,18.4
2023-04-18T22:04:44.911Z,17.8
2023-04-18T22:09:44.779Z,17.7
2023-04-18T22:14:44.966Z,17.6
2023-04-18T22:19:44.935Z,18.4
2023-04-18T22:24:48.009Z,17.9
2023-04-18T22:29:44.883Z,17.9
2023-04-18T22:34:44.864Z,17.6
2023-04-18T22:39:44.838Z,17.9
2023-04-18T22:44:44.877Z,17.9
2023-04-18T22:49:44.773Z,17.9
2023-04-18T22:54:44.974Z,17.9
2023-04-18T22:59:44.812Z,17.7
2023-04-18T23:04:44.869Z,17.6
2023-04-18T23:09:44.957Z,17.3
2023-04-18T23:14:44.793Z,17.3
2023-04-18T23:19:44.802Z,17.7
2023-04-18T23:24:44.981Z,17.5
2023-04-18T23:29:44.789Z,17
2023-04-18T23:34:44.949Z,17.5
2023-04-18T23:39:44.895Z,17.5
2023-04-18T23:44:44.897Z,17.5
2023-04-18T23:49:44.912Z,17
2023-04-18T23:54:44.784Z,17
2023-04-18T23:59:44.874Z,17
